sensor_id;sensor_type;location;lat;lon;timestamp;pressure;altitude;pressure_sealevel;temperature;humidity
72086;BME280;64750;52.134;5.424;2023-05-07T00:02:16;101815.00;;;16.17;80.28
72086;BME280;64750;52.134;5.424;2023-05-07T00:04:42;101815.94;;;16.16;80.28
72086;BME280;64750;52.134;5.424;2023-05-07T00:07:10;101818.72;;;16.14;80.34
72086;BME280;64750;52.134;5.424;2023-05-07T00:09:36;101819.56;;;16.15;80.51
72086;BME280;64750;52.134;5.424;2023-05-07T00:12:03;101818.91;;;16.11;80.47
72086;BME280;64750;52.134;5.424;2023-05-07T00:14:29;101822.63;;;16.08;80.53
72086;BME280;64750;52.134;5.424;2023-05-07T00:16:56;101824.31;;;16.10;80.46
72086;BME280;64750;52.134;5.424;2023-05-07T00:19:22;101819.00;;;16.10;80.43
72086;BME280;64750;52.134;5.424;2023-05-07T00:21:49;101817.31;;;16.08;80.33
72086;BME280;64750;52.134;5.424;2023-05-07T00:24:15;101819.97;;;16.08;80.22
72086;BME280;64750;52.134;5.424;2023-05-07T00:26:42;101822.63;;;16.08;80.02
72086;BME280;64750;52.134;5.424;2023-05-07T00:29:08;101819.25;;;16.06;80.15
72086;BME280;64750;52.134;5.424;2023-05-07T00:31:34;101813.19;;;16.04;80.17
72086;BME280;64750;52.134;5.424;2023-05-07T00:34:01;101807.97;;;16.03;80.34
72086;BME280;64750;52.134;5.424;2023-05-07T00:36:28;101805.34;;;16.03;79.92
72086;BME280;64750;52.134;5.424;2023-05-07T00:38:57;101804.50;;;16.02;79.99
72086;BME280;64750;52.134;5.424;2023-05-07T00:41:26;101798.44;;;16.00;80.08
72086;BME280;64750;52.134;5.424;2023-05-07T00:43:52;101797.50;;;16.01;80.11
72086;BME280;64750;52.134;5.424;2023-05-07T00:46:22;101796.72;;;15.99;80.08
72086;BME280;64750;52.134;5.424;2023-05-07T00:48:50;101802.91;;;16.00;80.24
72086;BME280;64750;52.134;5.424;2023-05-07T00:51:17;101795.03;;;15.98;80.04
72086;BME280;64750;52.134;5.424;2023-05-07T00:53:45;101793.25;;;15.99;80.12
72086;BME280;64750;52.134;5.424;2023-05-07T00:56:12;101800.44;;;15.97;80.17
72086;BME280;64750;52.134;5.424;2023-05-07T00:58:38;101796.19;;;15.94;80.34
72086;BME280;64750;52.134;5.424;2023-05-07T01:01:05;101797.38;;;15.90;80.46
72086;BME280;64750;52.134;5.424;2023-05-07T01:03:32;101790.69;;;15.84;80.73
72086;BME280;64750;52.134;5.424;2023-05-07T01:05:59;101797.78;;;15.84;80.97
72086;BME280;64750;52.134;5.424;2023-05-07T01:08:27;101794.16;;;15.85;80.91
72086;BME280;64750;52.134;5.424;2023-05-07T01:10:57;101788.88;;;15.85;81.08
72086;BME280;64750;52.134;5.424;2023-05-07T01:13:24;101792.59;;;15.82;81.10
72086;BME280;64750;52.134;5.424;2023-05-07T01:15:50;101787.34;;;15.81;81.31
72086;BME280;64750;52.134;5.424;2023-05-07T01:18:17;101790.00;;;15.81;81.11
72086;BME280;64750;52.134;5.424;2023-05-07T01:20:44;101794.53;;;15.79;81.15
72086;BME280;64750;52.134;5.424;2023-05-07T01:23:11;101792.84;;;15.78;81.55
72086;BME280;64750;52.134;5.424;2023-05-07T01:25:38;101798.38;;;15.74;81.67
72086;BME280;64750;52.134;5.424;2023-05-07T01:28:05;101786.06;;;15.73;81.73
72086;BME280;64750;52.134;5.424;2023-05-07T01:30:32;101787.88;;;15.73;81.71
72086;BME280;64750;52.134;5.424;2023-05-07T01:33:04;101789.00;;;15.69;81.93
72086;BME280;64750;52.134;5.424;2023-05-07T01:35:37;101790.94;;;15.67;81.81
72086;BME280;64750;52.134;5.424;2023-05-07T01:38:05;101793.56;;;15.67;81.92
72086;BME280;64750;52.134;5.424;2023-05-07T01:40:33;101792.72;;;15.66;81.94
72086;BME280;64750;52.134;5.424;2023-05-07T01:43:03;101794.63;;;15.64;82.10
72086;BME280;64750;52.134;5.424;2023-05-07T01:45:32;101789.34;;;15.64;82.33
72086;BME280;64750;52.134;5.424;2023-05-07T01:48:02;101789.44;;;15.63;82.29
72086;BME280;64750;52.134;5.424;2023-05-07T01:50:30;101795.78;;;15.60;82.39
72086;BME280;64750;52.134;5.424;2023-05-07T01:52:57;101793.97;;;15.61;82.29
72086;BME280;64750;52.134;5.424;2023-05-07T01:55:24;101795.56;;;15.63;82.44
72086;BME280;64750;52.134;5.424;2023-05-07T01:57:50;101787.63;;;15.63;82.30
72086;BME280;64750;52.134;5.424;2023-05-07T02:00:17;101795.47;;;15.65;82.28
72086;BME280;64750;52.134;5.424;2023-05-07T02:02:45;101790.81;;;15.68;82.25
72086;BME280;64750;52.134;5.424;2023-05-07T02:05:11;101793.25;;;15.71;82.13
72086;BME280;64750;52.134;5.424;2023-05-07T02:07:38;101800.47;;;15.69;81.92
72086;BME280;64750;52.134;5.424;2023-05-07T02:10:05;101791.56;;;15.70;81.92
72086;BME280;64750;52.134;5.424;2023-05-07T02:12:32;101790.81;;;15.68;81.79
72086;BME280;64750;52.134;5.424;2023-05-07T02:14:59;101795.47;;;15.65;82.05
72086;BME280;64750;52.134;5.424;2023-05-07T02:17:26;101800.13;;;15.61;82.32
72086;BME280;64750;52.134;5.424;2023-05-07T02:19:52;101794.91;;;15.59;82.35
72086;BME280;64750;52.134;5.424;2023-05-07T02:22:19;101785.38;;;15.57;82.40
72086;BME280;64750;52.134;5.424;2023-05-07T02:24:45;101787.09;;;15.58;82.38
72086;BME280;64750;52.134;5.424;2023-05-07T02:27:12;101789.72;;;15.58;82.39
72086;BME280;64750;52.134;5.424;2023-05-07T02:29:38;101784.53;;;15.56;82.50
72086;BME280;64750;52.134;5.424;2023-05-07T02:32:05;101785.38;;;15.57;82.65
72086;BME280;64750;52.134;5.424;2023-05-07T02:34:31;101787.09;;;15.58;82.67
72086;BME280;64750;52.134;5.424;2023-05-07T02:36:58;101788.91;;;15.57;82.88
72086;BME280;64750;52.134;5.424;2023-05-07T02:39:24;101795.03;;;15.58;82.65
72086;BME280;64750;52.134;5.424;2023-05-07T02:41:50;101790.78;;;15.55;82.99
72086;BME280;64750;52.134;5.424;2023-05-07T02:44:17;101789.41;;;15.50;82.94
72086;BME280;64750;52.134;5.424;2023-05-07T02:46:43;101784.19;;;15.48;83.35
72086;BME280;64750;52.134;5.424;2023-05-07T02:49:10;101788.00;;;15.44;83.21
72086;BME280;64750;52.134;5.424;2023-05-07T02:51:36;101790.19;;;15.37;83.37
72086;BME280;64750;52.134;5.424;2023-05-07T02:54:03;101789.00;;;15.29;83.87
72086;BME280;64750;52.134;5.424;2023-05-07T02:56:29;101781.66;;;15.19;84.18
72086;BME280;64750;52.134;5.424;2023-05-07T02:58:56;101788.09;;;15.15;84.28
72086;BME280;64750;52.134;5.424;2023-05-07T03:01:23;101786.50;;;15.13;84.23
72086;BME280;64750;52.134;5.424;2023-05-07T03:03:49;101781.34;;;15.24;83.96
72086;BME280;64750;52.134;5.424;2023-05-07T03:06:15;101785.28;;;15.31;83.54
72086;BME280;64750;52.134;5.424;2023-05-07T03:08:42;101789.44;;;15.35;83.65
72086;BME280;64750;52.134;5.424;2023-05-07T03:11:08;101781.59;;;15.34;83.84
72086;BME280;64750;52.134;5.424;2023-05-07T03:13:35;101786.69;;;15.37;83.85
72086;BME280;64750;52.134;5.424;2023-05-07T03:16:01;101786.59;;;15.38;83.86
72086;BME280;64750;52.134;5.424;2023-05-07T03:18:28;101786.59;;;15.38;83.76
72086;BME280;64750;52.134;5.424;2023-05-07T03:20:54;101779.50;;;15.39;83.38
72086;BME280;64750;52.134;5.424;2023-05-07T03:23:21;101782.16;;;15.39;83.53
72086;BME280;64750;52.134;5.424;2023-05-07T03:25:50;101778.66;;;15.38;83.34
72086;BME280;64750;52.134;5.424;2023-05-07T03:28:16;101779.34;;;15.28;83.74
72086;BME280;64750;52.134;5.424;2023-05-07T03:30:43;101785.94;;;15.35;83.58
72086;BME280;64750;52.134;5.424;2023-05-07T03:33:09;101782.97;;;15.39;83.45
72086;BME280;64750;52.134;5.424;2023-05-07T03:35:36;101778.56;;;15.40;83.28
72086;BME280;64750;52.134;5.424;2023-05-07T03:38:02;101778.44;;;15.41;83.21
72086;BME280;64750;52.134;5.424;2023-05-07T03:40:28;101786.28;;;15.43;83.18
72086;BME280;64750;52.134;5.424;2023-05-07T03:42:55;101774.09;;;15.40;83.11
72086;BME280;64750;52.134;5.424;2023-05-07T03:45:22;101775.03;;;15.39;83.21
72086;BME280;64750;52.134;5.424;2023-05-07T03:47:48;101780.09;;;15.30;83.32
72086;BME280;64750;52.134;5.424;2023-05-07T03:50:15;101784.97;;;15.23;83.75
72086;BME280;64750;52.134;5.424;2023-05-07T03:52:41;101783.25;;;15.22;83.87
72086;BME280;64750;52.134;5.424;2023-05-07T03:55:08;101788.06;;;15.30;83.60
72086;BME280;64750;52.134;5.424;2023-05-07T03:57:35;101789.53;;;15.34;83.46
72086;BME280;64750;52.134;5.424;2023-05-07T04:00:01;101787.56;;;15.37;83.20
72086;BME280;64750;52.134;5.424;2023-05-07T04:02:28;101792.84;;;15.37;83.12
72086;BME280;64750;52.134;5.424;2023-05-07T04:04:55;101791.97;;;15.37;83.16
72086;BME280;64750;52.134;5.424;2023-05-07T04:07:21;101793.78;;;15.36;83.00
72086;BME280;64750;52.134;5.424;2023-05-07T04:09:47;101798.00;;;15.26;83.08
72086;BME280;64750;52.134;5.424;2023-05-07T04:12:14;101801.56;;;15.25;83.26
72086;BME280;64750;52.134;5.424;2023-05-07T04:14:41;101794.41;;;15.27;83.25
72086;BME280;64750;52.134;5.424;2023-05-07T04:17:07;101801.41;;;15.28;83.35
72086;BME280;64750;52.134;5.424;2023-05-07T04:19:35;101803.06;;;15.29;83.40
72086;BME280;64750;52.134;5.424;2023-05-07T04:22:02;101799.47;;;15.30;83.29
72086;BME280;64750;52.134;5.424;2023-05-07T04:24:31;101805.72;;;15.29;83.46
72086;BME280;64750;52.134;5.424;2023-05-07T04:26:59;101805.00;;;15.27;83.37
72086;BME280;64750;52.134;5.424;2023-05-07T04:29:25;101810.47;;;15.24;83.34
72086;BME280;64750;52.134;5.424;2023-05-07T04:31:52;101804.94;;;15.14;83.95
72086;BME280;64750;52.134;5.424;2023-05-07T04:34:18;101815.41;;;15.16;83.76
72086;BME280;64750;52.134;5.424;2023-05-07T04:36:45;101807.25;;;15.19;83.44
72086;BME280;64750;52.134;5.424;2023-05-07T04:39:12;101808.78;;;15.23;83.12
72086;BME280;64750;52.134;5.424;2023-05-07T04:41:38;101809.53;;;15.25;83.17
72086;BME280;64750;52.134;5.424;2023-05-07T04:44:05;101801.78;;;15.22;83.24
72086;BME280;64750;52.134;5.424;2023-05-07T04:46:32;101810.69;;;15.21;83.21
72086;BME280;64750;52.134;5.424;2023-05-07T04:48:58;101809.34;;;15.14;83.51
72086;BME280;64750;52.134;5.424;2023-05-07T04:51:24;101808.81;;;15.08;83.69
72086;BME280;64750;52.134;5.424;2023-05-07T04:53:51;101811.66;;;15.05;84.17
72086;BME280;64750;52.134;5.424;2023-05-07T04:56:17;101818.66;;;15.06;83.54
72086;BME280;64750;52.134;5.424;2023-05-07T04:58:44;101820.53;;;15.04;83.60
72086;BME280;64750;52.134;5.424;2023-05-07T05:01:10;101831.13;;;15.04;83.59
72086;BME280;64750;52.134;5.424;2023-05-07T05:03:37;101821.13;;;14.95;83.83
72086;BME280;64750;52.134;5.424;2023-05-07T05:06:05;101830.22;;;14.91;84.03
72086;BME280;64750;52.134;5.424;2023-05-07T05:08:32;101825.88;;;14.90;83.79
72086;BME280;64750;52.134;5.424;2023-05-07T05:11:00;101831.16;;;14.90;84.09
72086;BME280;64750;52.134;5.424;2023-05-07T05:13:27;101826.03;;;14.87;84.18
72086;BME280;64750;52.134;5.424;2023-05-07T05:15:53;101820.47;;;14.91;83.98
72086;BME280;64750;52.134;5.424;2023-05-07T05:18:20;101827.56;;;14.91;84.19
72086;BME280;64750;52.134;5.424;2023-05-07T05:20:46;101829.34;;;14.90;84.32
72086;BME280;64750;52.134;5.424;2023-05-07T05:23:12;101832.56;;;14.96;84.10
72086;BME280;64750;52.134;5.424;2023-05-07T05:25:39;101837.47;;;15.02;83.96
72086;BME280;64750;52.134;5.424;2023-05-07T05:28:06;101833.44;;;14.96;84.01
72086;BME280;64750;52.134;5.424;2023-05-07T05:30:32;101831.72;;;14.95;84.10
72086;BME280;64750;52.134;5.424;2023-05-07T05:32:59;101836.34;;;14.91;84.25
72086;BME280;64750;52.134;5.424;2023-05-07T05:35:26;101843.47;;;14.91;84.57
72086;BME280;64750;52.134;5.424;2023-05-07T05:37:52;101849.09;;;14.99;84.60
72086;BME280;64750;52.134;5.424;2023-05-07T05:40:19;101846.19;;;15.04;84.28
72086;BME280;64750;52.134;5.424;2023-05-07T05:42:45;101854.03;;;15.05;84.15
72086;BME280;64750;52.134;5.424;2023-05-07T05:45:12;101851.38;;;15.05;84.05
72086;BME280;64750;52.134;5.424;2023-05-07T05:47:39;101860.38;;;15.03;84.26
72086;BME280;64750;52.134;5.424;2023-05-07T05:50:06;101856.31;;;14.97;84.63
72086;BME280;64750;52.134;5.424;2023-05-07T05:52:33;101863.28;;;14.98;84.83
72086;BME280;64750;52.134;5.424;2023-05-07T05:55:00;101868.97;;;15.06;84.51
72086;BME280;64750;52.134;5.424;2023-05-07T05:57:26;101865.94;;;15.13;84.37
72086;BME280;64750;52.134;5.424;2023-05-07T05:59:54;101864.97;;;15.14;84.50
72086;BME280;64750;52.134;5.424;2023-05-07T06:02:21;101863.91;;;15.16;84.45
72086;BME280;64750;52.134;5.424;2023-05-07T06:04:47;101871.88;;;15.16;84.50
72086;BME280;64750;52.134;5.424;2023-05-07T06:07:14;101878.97;;;15.16;84.38
72086;BME280;64750;52.134;5.424;2023-05-07T06:09:40;101882.38;;;15.18;84.34
72086;BME280;64750;52.134;5.424;2023-05-07T06:12:07;101870.81;;;15.19;84.36
72086;BME280;64750;52.134;5.424;2023-05-07T06:14:33;101878.69;;;15.20;84.25
72086;BME280;64750;52.134;5.424;2023-05-07T06:17:00;101874.25;;;15.21;84.00
72086;BME280;64750;52.134;5.424;2023-05-07T06:19:26;101882.38;;;15.18;84.30
72086;BME280;64750;52.134;5.424;2023-05-07T06:21:54;101877.00;;;15.19;84.51
72086;BME280;64750;52.134;5.424;2023-05-07T06:24:22;101884.81;;;15.21;84.40
72086;BME280;64750;52.134;5.424;2023-05-07T06:26:49;101882.94;;;15.23;84.62
72086;BME280;64750;52.134;5.424;2023-05-07T06:29:15;101885.50;;;15.24;84.66
72086;BME280;64750;52.134;5.424;2023-05-07T06:31:41;101874.78;;;15.26;84.69
72086;BME280;64750;52.134;5.424;2023-05-07T06:34:08;101881.91;;;15.25;84.40
72086;BME280;64750;52.134;5.424;2023-05-07T06:36:34;101879.25;;;15.25;84.62
72086;BME280;64750;52.134;5.424;2023-05-07T06:39:01;101888.88;;;15.26;84.63
72086;BME280;64750;52.134;5.424;2023-05-07T06:41:27;101888.81;;;15.28;84.57
72086;BME280;64750;52.134;5.424;2023-05-07T06:43:54;101884.44;;;15.27;84.64
72086;BME280;64750;52.134;5.424;2023-05-07T06:46:20;101891.44;;;15.28;84.61
72086;BME280;64750;52.134;5.424;2023-05-07T06:48:47;101884.44;;;15.27;84.72
72086;BME280;64750;52.134;5.424;2023-05-07T06:51:13;101889.84;;;15.25;84.67
72086;BME280;64750;52.134;5.424;2023-05-07T06:53:40;101882.75;;;15.26;84.71
72086;BME280;64750;52.134;5.424;2023-05-07T06:56:06;101890.78;;;15.24;84.97
72086;BME280;64750;52.134;5.424;2023-05-07T06:58:33;101887.28;;;15.24;85.29
72086;BME280;64750;52.134;5.424;2023-05-07T07:00:59;101881.91;;;15.25;85.42
72086;BME280;64750;52.134;5.424;2023-05-07T07:03:26;101886.53;;;15.22;85.98
72086;BME280;64750;52.134;5.424;2023-05-07T07:05:53;101888.88;;;15.26;85.60
72086;BME280;64750;52.134;5.424;2023-05-07T07:08:20;101884.25;;;15.30;85.75
72086;BME280;64750;52.134;5.424;2023-05-07T07:10:47;101878.75;;;15.33;85.83
72086;BME280;64750;52.134;5.424;2023-05-07T07:13:14;101879.38;;;15.37;85.88
72086;BME280;64750;52.134;5.424;2023-05-07T07:15:40;101882.81;;;15.39;85.86
72086;BME280;64750;52.134;5.424;2023-05-07T07:18:07;101892.34;;;15.41;85.76
72086;BME280;64750;52.134;5.424;2023-05-07T07:20:33;101888.56;;;15.46;86.16
72086;BME280;64750;52.134;5.424;2023-05-07T07:23:00;101878.81;;;15.46;86.16
72086;BME280;64750;52.134;5.424;2023-05-07T07:25:26;101877.88;;;15.47;85.97
72086;BME280;64750;52.134;5.424;2023-05-07T07:27:52;101873.53;;;15.46;85.88
72086;BME280;64750;52.134;5.424;2023-05-07T07:30:19;101880.53;;;15.47;85.74
72086;BME280;64750;52.134;5.424;2023-05-07T07:32:45;101883.91;;;15.49;85.81
72086;BME280;64750;52.134;5.424;2023-05-07T07:35:12;101882.97;;;15.50;86.34
72086;BME280;64750;52.134;5.424;2023-05-07T07:37:38;101892.53;;;15.53;85.91
72086;BME280;64750;52.134;5.424;2023-05-07T07:40:05;101890.53;;;15.56;85.85
72086;BME280;64750;52.134;5.424;2023-05-07T07:42:32;101895.84;;;15.56;85.55
72086;BME280;64750;52.134;5.424;2023-05-07T07:44:58;101894.88;;;15.57;85.80
72086;BME280;64750;52.134;5.424;2023-05-07T07:47:25;101897.31;;;15.61;85.82
72086;BME280;64750;52.134;5.424;2023-05-07T07:49:51;101893.84;;;15.60;87.28
72086;BME280;64750;52.134;5.424;2023-05-07T07:52:18;101896.28;;;15.63;86.87
72086;BME280;64750;52.134;5.424;2023-05-07T07:54:44;101899.69;;;15.65;86.83
72086;BME280;64750;52.134;5.424;2023-05-07T07:57:11;101901.84;;;15.73;87.04
72086;BME280;64750;52.134;5.424;2023-05-07T07:59:37;101903.34;;;15.77;86.54
72086;BME280;64750;52.134;5.424;2023-05-07T08:02:04;101906.63;;;15.81;86.13
72086;BME280;64750;52.134;5.424;2023-05-07T08:04:30;101910.91;;;15.83;86.07
72086;BME280;64750;52.134;5.424;2023-05-07T08:06:59;101906.47;;;15.84;86.31
72086;BME280;64750;52.134;5.424;2023-05-07T08:09:25;101911.94;;;15.81;86.42
72086;BME280;64750;52.134;5.424;2023-05-07T08:11:52;101905.13;;;15.77;86.45
72086;BME280;64750;52.134;5.424;2023-05-07T08:14:18;101905.88;;;15.79;86.39
72086;BME280;64750;52.134;5.424;2023-05-07T08:16:45;101912.88;;;15.80;85.88
72086;BME280;64750;52.134;5.424;2023-05-07T08:19:11;101912.88;;;15.80;85.56
72086;BME280;64750;52.134;5.424;2023-05-07T08:21:39;101915.34;;;15.83;85.51
72086;BME280;64750;52.134;5.424;2023-05-07T08:24:06;101913.56;;;15.83;85.77
72086;BME280;64750;52.134;5.424;2023-05-07T08:26:32;101911.88;;;15.82;85.83
72086;BME280;64750;52.134;5.424;2023-05-07T08:28:59;101906.56;;;15.82;85.96
72086;BME280;64750;52.134;5.424;2023-05-07T08:31:25;101905.69;;;15.82;86.09
72086;BME280;64750;52.134;5.424;2023-05-07T08:33:52;101911.00;;;15.82;86.08
72086;BME280;64750;52.134;5.424;2023-05-07T08:36:18;101910.91;;;15.83;86.07
72086;BME280;64750;52.134;5.424;2023-05-07T08:38:45;101913.56;;;15.83;86.28
72086;BME280;64750;52.134;5.424;2023-05-07T08:41:12;101921.41;;;15.85;86.43
72086;BME280;64750;52.134;5.424;2023-05-07T08:43:40;101918.88;;;15.83;86.42
72086;BME280;64750;52.134;5.424;2023-05-07T08:46:09;101918.66;;;15.86;86.75
72086;BME280;64750;52.134;5.424;2023-05-07T08:48:36;101926.50;;;15.88;86.86
72086;BME280;64750;52.134;5.424;2023-05-07T08:51:03;101911.47;;;15.88;87.76
72086;BME280;64750;52.134;5.424;2023-05-07T08:53:29;101916.56;;;15.91;87.57
72086;BME280;64750;52.134;5.424;2023-05-07T08:55:56;101918.16;;;15.94;87.97
72086;BME280;64750;52.134;5.424;2023-05-07T08:58:22;101907.44;;;15.96;87.61
72086;BME280;64750;52.134;5.424;2023-05-07T09:00:49;101918.03;;;15.96;87.31
72086;BME280;64750;52.134;5.424;2023-05-07T09:03:16;101918.03;;;15.96;87.20
72086;BME280;64750;52.134;5.424;2023-05-07T09:05:43;101924.22;;;15.96;87.19
72086;BME280;64750;52.134;5.424;2023-05-07T09:08:14;101918.16;;;15.94;87.05
72086;BME280;64750;52.134;5.424;2023-05-07T09:10:42;101911.91;;;15.95;87.15
72086;BME280;64750;52.134;5.424;2023-05-07T09:13:08;101918.91;;;15.96;87.42
72086;BME280;64750;52.134;5.424;2023-05-07T09:15:36;101912.84;;;15.94;87.30
72086;BME280;64750;52.134;5.424;2023-05-07T09:18:03;101909.25;;;15.95;87.81
72086;BME280;64750;52.134;5.424;2023-05-07T09:20:30;101914.56;;;15.95;87.80
72086;BME280;64750;52.134;5.424;2023-05-07T09:22:56;101913.63;;;15.96;88.19
72086;BME280;64750;52.134;5.424;2023-05-07T09:25:30;101917.00;;;15.98;88.25
72086;BME280;64750;52.134;5.424;2023-05-07T09:27:58;101920.81;;;15.94;87.94
72086;BME280;64750;52.134;5.424;2023-05-07T09:30:32;101922.50;;;15.95;88.01
72086;BME280;64750;52.134;5.424;2023-05-07T09:32:59;101927.59;;;15.98;88.16
72086;BME280;64750;52.134;5.424;2023-05-07T09:35:26;101922.31;;;15.98;87.80
72086;BME280;64750;52.134;5.424;2023-05-07T09:37:55;101925.06;;;15.97;87.41
72086;BME280;64750;52.134;5.424;2023-05-07T09:40:24;101923.16;;;15.99;87.81
72086;BME280;64750;52.134;5.424;2023-05-07T09:42:51;101923.16;;;15.99;87.43
72086;BME280;64750;52.134;5.424;2023-05-07T09:45:38;101929.31;;;15.99;87.28
72086;BME280;64750;52.134;5.424;2023-05-07T09:48:05;101924.00;;;15.99;87.30
72086;BME280;64750;52.134;5.424;2023-05-07T09:50:36;101931.03;;;16.00;87.27
72086;BME280;64750;52.134;5.424;2023-05-07T09:53:03;101927.41;;;16.01;87.15
72086;BME280;64750;52.134;5.424;2023-05-07T09:55:30;101934.50;;;16.01;87.16
72086;BME280;64750;52.134;5.424;2023-05-07T09:57:57;101927.19;;;16.04;87.05
72086;BME280;64750;52.134;5.424;2023-05-07T10:00:25;101922.66;;;16.06;87.30
72086;BME280;64750;52.134;5.424;2023-05-07T10:02:52;101936.03;;;16.05;86.90
72086;BME280;64750;52.134;5.424;2023-05-07T10:05:19;101943.88;;;16.06;87.07
72086;BME280;64750;52.134;5.424;2023-05-07T10:07:50;101938.69;;;16.05;86.85
72086;BME280;64750;52.134;5.424;2023-05-07T10:10:17;101932.31;;;16.07;86.93
72086;BME280;64750;52.134;5.424;2023-05-07T10:12:44;101936.47;;;16.12;87.46
72086;BME280;64750;52.134;5.424;2023-05-07T10:15:12;101937.19;;;16.14;87.58
72086;BME280;64750;52.134;5.424;2023-05-07T10:17:39;101938.91;;;16.15;87.06
72086;BME280;64750;52.134;5.424;2023-05-07T10:20:07;101937.75;;;16.19;87.60
72086;BME280;64750;52.134;5.424;2023-05-07T10:22:46;101943.81;;;16.21;87.72
72086;BME280;64750;52.134;5.424;2023-05-07T10:25:25;101937.34;;;16.25;87.25
72086;BME280;64750;52.134;5.424;2023-05-07T10:27:55;101939.81;;;16.28;87.50
72086;BME280;64750;52.134;5.424;2023-05-07T10:30:38;101935.97;;;16.32;87.79
72086;BME280;64750;52.134;5.424;2023-05-07T10:33:09;101937.47;;;16.36;87.33
72086;BME280;64750;52.134;5.424;2023-05-07T10:35:41;101935.47;;;16.40;87.24
72086;BME280;64750;52.134;5.424;2023-05-07T10:38:09;101933.47;;;16.44;87.09
72086;BME280;64750;52.134;5.424;2023-05-07T10:40:36;101936.66;;;16.49;87.49
72086;BME280;64750;52.134;5.424;2023-05-07T10:43:04;101935.59;;;16.51;87.00
72086;BME280;64750;52.134;5.424;2023-05-07T10:45:35;101933.25;;;16.60;86.94
72086;BME280;64750;52.134;5.424;2023-05-07T10:48:15;101931.13;;;16.65;86.52
72086;BME280;64750;52.134;5.424;2023-05-07T10:51:18;101929.88;;;16.70;86.36
72086;BME280;64750;52.134;5.424;2023-05-07T10:53:44;101929.53;;;16.75;86.50
72086;BME280;64750;52.134;5.424;2023-05-07T10:58:43;101937.97;;;16.82;85.25
72086;BME280;64750;52.134;5.424;2023-05-07T11:01:10;101936.03;;;16.84;85.13
72086;BME280;64750;52.134;5.424;2023-05-07T11:04:14;101934.13;;;16.86;84.89
72086;BME280;64750;52.134;5.424;2023-05-07T11:06:41;101930.28;;;16.90;85.19
72086;BME280;64750;52.134;5.424;2023-05-07T11:09:07;101933.72;;;16.92;84.68
72086;BME280;64750;52.134;5.424;2023-05-07T11:11:47;101931.81;;;16.94;84.88
72086;BME280;64750;52.134;5.424;2023-05-07T11:14:14;101933.28;;;16.98;85.26
72086;BME280;64750;52.134;5.424;2023-05-07T11:17:02;101941.06;;;17.01;84.73
72086;BME280;64750;52.134;5.424;2023-05-07T11:20:08;101935.50;;;17.04;85.08
72086;BME280;64750;52.134;5.424;2023-05-07T11:22:36;101934.34;;;17.09;85.53
72086;BME280;64750;52.134;5.424;2023-05-07T11:25:06;101940.28;;;17.12;85.24
72086;BME280;64750;52.134;5.424;2023-05-07T11:27:33;101946.47;;;17.13;85.16
72086;BME280;64750;52.134;5.424;2023-05-07T11:29:59;101948.38;;;17.11;84.83
72086;BME280;64750;52.134;5.424;2023-05-07T11:32:31;101947.63;;;17.09;84.23
72086;BME280;64750;52.134;5.424;2023-05-07T11:34:59;101941.34;;;17.10;84.75
72086;BME280;64750;52.134;5.424;2023-05-07T11:37:27;101937.09;;;17.20;85.34
72086;BME280;64750;52.134;5.424;2023-05-07T11:40:03;101940.38;;;17.24;85.33
72086;BME280;64750;52.134;5.424;2023-05-07T11:42:34;101934.63;;;17.30;85.05
72086;BME280;64750;52.134;5.424;2023-05-07T11:45:01;101940.69;;;17.32;84.39
72086;BME280;64750;52.134;5.424;2023-05-07T11:47:30;101941.09;;;17.38;84.35
72086;BME280;64750;52.134;5.424;2023-05-07T11:50:02;101932.06;;;17.41;84.65
72086;BME280;64750;52.134;5.424;2023-05-07T11:52:29;101939.47;;;17.49;84.68
72086;BME280;64750;52.134;5.424;2023-05-07T11:54:57;101933.81;;;17.53;85.08
72086;BME280;64750;52.134;5.424;2023-05-07T11:57:24;101940.19;;;17.51;84.15
72086;BME280;64750;52.134;5.424;2023-05-07T11:59:58;101930.44;;;17.51;84.20
72086;BME280;64750;52.134;5.424;2023-05-07T12:02:25;101940.72;;;17.56;84.82
72086;BME280;64750;52.134;5.424;2023-05-07T12:04:53;101932.53;;;17.59;84.31
72086;BME280;64750;52.134;5.424;2023-05-07T12:07:20;101942.72;;;17.65;84.54
72086;BME280;64750;52.134;5.424;2023-05-07T12:09:47;101937.41;;;17.65;84.35
72086;BME280;64750;52.134;5.424;2023-05-07T12:12:14;101941.66;;;17.68;84.27
72086;BME280;64750;52.134;5.424;2023-05-07T12:14:45;101935.03;;;17.74;84.37
72086;BME280;64750;52.134;5.424;2023-05-07T12:17:13;101940.72;;;17.80;84.29
72086;BME280;64750;52.134;5.424;2023-05-07T12:19:42;101940.09;;;17.90;84.63
72086;BME280;64750;52.134;5.424;2023-05-07T12:22:10;101933.03;;;18.01;84.21
72086;BME280;64750;52.134;5.424;2023-05-07T12:24:50;101930.88;;;18.07;82.88
72086;BME280;64750;52.134;5.424;2023-05-07T12:27:22;101933.19;;;18.11;82.93
72086;BME280;64750;52.134;5.424;2023-05-07T12:29:50;101929.97;;;18.19;81.39
72086;BME280;64750;52.134;5.424;2023-05-07T12:32:19;101938.03;;;18.17;82.71
72086;BME280;64750;52.134;5.424;2023-05-07T12:34:46;101935.03;;;18.22;82.87
72086;BME280;64750;52.134;5.424;2023-05-07T12:37:13;101937.44;;;18.25;82.16
72086;BME280;64750;52.134;5.424;2023-05-07T12:39:49;101933.34;;;18.21;82.17
72086;BME280;64750;52.134;5.424;2023-05-07T12:42:19;101931.75;;;18.18;81.74
72086;BME280;64750;52.134;5.424;2023-05-07T12:44:46;101932.38;;;18.22;81.72
72086;BME280;64750;52.134;5.424;2023-05-07T12:47:12;101936.75;;;18.23;81.45
72086;BME280;64750;52.134;5.424;2023-05-07T12:49:41;101932.63;;;18.30;81.59
72086;BME280;64750;52.134;5.424;2023-05-07T12:52:08;101931.72;;;18.43;80.91
72086;BME280;64750;52.134;5.424;2023-05-07T12:54:37;101936.56;;;18.49;80.14
72086;BME280;64750;52.134;5.424;2023-05-07T12:57:06;101936.56;;;18.49;78.54